Ansley, Louisiana
Current Conditions -  °F | °C
As of 7:35 PM on Monday 22 Dec 2014 (Local Time) from KRSN Reporting Station
Haze Haze  
Wind Chill: 59°   Ceiling: 3200
Heat Index: 59°   Visibility: 5mi
Dew Point: 59°   Wind: 0mph
Humidity: 100%   Direction: NA
Pressure: 29.67"   Gusts: NA
Location:  32.5075°N, 92.6828°W
Report Text: KRSN 230135Z AUTO 00000KT 5SM BR BKN032 BKN046 OVC050 15/15 A2967 RMK AO2 T01490149
Loading
Personal Weather Stations






























Interactive Weather Map New forecast layout! Learn more

10-Day Weather Forecast

Advertisements
Track Severe Weather on mobile